Terminal Aerodrome Forecast
Issued by NWS Billings, MT

Home | Current Version | Previous Version | Text Only | Print | Product List | Glossary On
Versions: 1 2 3 4 5 6 7 8 9 10 11 12 13 14 15 16 17 18 19 20 21 22 23 24
000
FTUS45 KBYZ 280535
TAFBIL
TAF
KBIL 280535Z 2806/2906 24017KT P6SM SCT070
     FM281600 22014KT 5SM -SN OVC050
     FM282000 33014KT 1SM -SN OVC010
     FM282300 02009KT 1/2SM SN OVC006=

USA.gov is the U.S. government's official web portal to all federal, state and local government web resources and services.